createdAt,value
2018-07-08T00:00:01.642Z,18.40
2018-07-08T00:04:58.577Z,18.30
2018-07-08T00:09:54.113Z,18.30
2018-07-08T00:14:49.657Z,18.30
2018-07-08T00:19:45.113Z,18.30
2018-07-08T00:24:40.969Z,18.30
2018-07-08T00:29:38.051Z,18.20
2018-07-08T00:34:33.651Z,18.10
2018-07-08T00:39:29.010Z,18.00
2018-07-08T00:44:25.207Z,17.90
2018-07-08T00:49:20.565Z,17.90
2018-07-08T00:54:16.006Z,17.80
2018-07-08T00:59:11.275Z,17.70
2018-07-08T01:04:07.520Z,17.60
2018-07-08T01:09:03.360Z,17.50
2018-07-08T01:13:59.222Z,17.40
2018-07-08T01:18:54.502Z,17.30
2018-07-08T01:23:50.246Z,17.20
2018-07-08T01:28:45.922Z,17.10
2018-07-08T01:33:42.000Z,17.00
2018-07-08T01:38:37.317Z,17.00
2018-07-08T01:48:27.797Z,16.90
2018-07-08T01:53:25.703Z,16.80
2018-07-08T01:58:21.465Z,16.70
2018-07-08T02:03:17.201Z,16.60
2018-07-08T02:08:12.803Z,16.60
2018-07-08T02:14:11.638Z,16.50
2018-07-08T02:19:07.727Z,16.50
2018-07-08T02:24:03.549Z,16.40
2018-07-08T02:28:59.360Z,16.40
2018-07-08T02:34:18.673Z,16.30
2018-07-08T02:39:46.193Z,16.30
2018-07-08T02:45:08.610Z,16.20
2018-07-08T02:50:06.177Z,16.20
2018-07-08T02:55:04.169Z,16.20
2018-07-08T02:59:59.816Z,16.10
2018-07-08T03:04:55.519Z,16.10
2018-07-08T03:09:50.991Z,16.00
2018-07-08T03:14:46.613Z,16.00
2018-07-08T03:24:37.830Z,16.00
2018-07-08T03:34:28.583Z,16.00
2018-07-08T03:39:24.169Z,16.00
2018-07-08T03:44:20.059Z,16.00
2018-07-08T03:49:16.102Z,16.00
2018-07-08T03:59:06.731Z,16.20
2018-07-08T04:04:02.337Z,16.30
2018-07-08T04:08:57.755Z,16.50
2018-07-08T04:13:53.544Z,16.60
2018-07-08T04:18:49.257Z,16.80
2018-07-08T04:23:44.863Z,17.00
2018-07-08T04:28:40.202Z,18.40
2018-07-08T04:33:35.676Z,20.90
2018-07-08T04:38:31.581Z,22.90
2018-07-08T04:43:27.057Z,24.40
2018-07-08T04:48:23.679Z,25.80
2018-07-08T04:53:19.907Z,26.90
2018-07-08T04:58:15.254Z,27.50
2018-07-08T05:03:10.932Z,28.10
2018-07-08T05:08:06.328Z,28.00
2018-07-08T05:13:01.836Z,28.50
2018-07-08T05:17:57.862Z,28.50
2018-07-08T05:27:48.510Z,28.30
2018-07-08T05:32:44.133Z,28.50
2018-07-08T05:37:40.026Z,28.30
2018-07-08T05:42:35.569Z,26.30
2018-07-08T05:47:31.284Z,24.60
2018-07-08T05:52:27.253Z,25.30
2018-07-08T05:57:23.830Z,28.40
2018-07-08T06:02:20.272Z,30.00
2018-07-08T06:07:16.150Z,32.00
2018-07-08T06:12:11.783Z,33.20
2018-07-08T06:17:08.038Z,33.50
2018-07-08T06:22:06.829Z,34.60
2018-07-08T06:27:04.270Z,34.90
2018-07-08T06:31:59.862Z,34.30
2018-07-08T06:36:55.335Z,34.00
2018-07-08T06:41:50.994Z,35.20
2018-07-08T06:46:46.416Z,35.20
2018-07-08T06:51:42.418Z,32.40
2018-07-08T06:56:37.637Z,30.80
2018-07-08T07:01:33.465Z,30.90
2018-07-08T07:06:28.975Z,31.60
2018-07-08T07:11:24.955Z,31.60
2018-07-08T07:16:20.774Z,29.90
2018-07-08T07:21:24.256Z,28.80
2018-07-08T07:26:20.278Z,28.50
2018-07-08T07:31:15.736Z,28.30
2018-07-08T07:36:13.105Z,28.90
2018-07-08T07:41:08.595Z,27.90
2018-07-08T07:46:05.270Z,27.00
2018-07-08T07:51:00.548Z,27.60
2018-07-08T07:55:57.160Z,27.60
2018-07-08T08:00:55.067Z,29.80
2018-07-08T08:05:51.256Z,31.90
2018-07-08T08:10:46.700Z,34.00
2018-07-08T08:15:42.119Z,36.00
2018-07-08T08:20:37.575Z,38.00
2018-07-08T08:25:33.163Z,36.60
2018-07-08T08:30:28.329Z,34.90
2018-07-08T08:35:23.961Z,33.20
2018-07-08T08:40:20.420Z,35.60
2018-07-08T08:45:17.271Z,37.80
2018-07-08T08:50:13.479Z,37.90
2018-07-08T08:55:09.757Z,38.00
2018-07-08T09:05:03.620Z,40.40
2018-07-08T09:09:59.727Z,39.10
2018-07-08T09:14:55.400Z,40.50
2018-07-08T09:19:50.868Z,40.70
2018-07-08T09:24:46.478Z,39.80
2018-07-08T09:29:41.943Z,38.60
2018-07-08T09:34:37.899Z,38.60
2018-07-08T09:39:50.444Z,38.40
2018-07-08T09:49:48.488Z,37.10
2018-07-08T09:54:44.090Z,36.60
2018-07-08T10:04:42.776Z,35.50
2018-07-08T10:09:38.201Z,37.40
2018-07-08T10:14:34.417Z,38.40
2018-07-08T10:19:30.190Z,40.30
2018-07-08T10:24:25.550Z,42.10
2018-07-08T10:29:21.329Z,43.40
2018-07-08T10:34:17.429Z,41.30
2018-07-08T10:44:09.494Z,39.30
2018-07-08T10:49:06.352Z,38.40
2018-07-08T10:54:01.885Z,36.30
2018-07-08T10:58:57.718Z,37.90
2018-07-08T11:03:53.057Z,39.30
2018-07-08T11:08:48.983Z,39.90
2018-07-08T11:13:44.347Z,35.40
2018-07-08T11:18:40.370Z,33.50
2018-07-08T11:23:36.100Z,31.50
2018-07-08T11:28:31.589Z,31.90
2018-07-08T11:39:24.559Z,31.70
2018-07-08T11:44:20.770Z,31.00
2018-07-08T11:54:11.229Z,31.10
2018-07-08T11:59:06.703Z,31.30
2018-07-08T12:04:02.837Z,30.80
2018-07-08T12:08:58.323Z,30.70
2018-07-08T12:13:54.417Z,30.80
2018-07-08T12:18:50.094Z,30.70
2018-07-08T12:23:45.540Z,30.50
2018-07-08T12:28:41.352Z,30.10
2018-07-08T12:33:36.918Z,29.40
2018-07-08T12:38:32.364Z,29.20
2018-07-08T12:43:27.934Z,29.40
2018-07-08T12:48:23.463Z,29.50
2018-07-08T12:53:19.241Z,29.40
2018-07-08T12:58:15.093Z,28.90
2018-07-08T13:03:10.771Z,28.90
2018-07-08T13:08:06.330Z,28.40
2018-07-08T13:13:02.667Z,28.50
2018-07-08T13:17:58.349Z,28.20
2018-07-08T13:22:54.626Z,27.70
2018-07-08T13:27:50.169Z,28.00
2018-07-08T13:32:45.846Z,28.20
2018-07-08T13:37:41.617Z,28.10
2018-07-08T13:42:37.707Z,28.00
2018-07-08T13:47:33.774Z,27.60
2018-07-08T13:52:29.206Z,27.90
2018-07-08T13:57:25.037Z,28.50
2018-07-08T14:02:20.373Z,28.90
2018-07-08T14:07:16.103Z,28.50
2018-07-08T14:12:12.514Z,27.90
2018-07-08T14:17:08.397Z,27.90
2018-07-08T14:22:06.995Z,28.10
2018-07-08T14:27:05.999Z,28.30
2018-07-08T14:32:05.231Z,28.40
2018-07-08T14:37:00.601Z,27.90
2018-07-08T14:41:56.322Z,28.40
2018-07-08T14:46:52.189Z,28.30
2018-07-08T14:51:47.678Z,28.50
2018-07-08T15:01:38.866Z,28.80
2018-07-08T15:06:34.843Z,28.30
2018-07-08T15:11:30.925Z,28.10
2018-07-08T15:16:26.476Z,27.70
2018-07-08T15:21:22.141Z,27.70
2018-07-08T15:26:17.822Z,27.70
2018-07-08T15:31:13.870Z,27.80
2018-07-08T15:36:09.503Z,27.90
2018-07-08T15:41:05.925Z,27.30
2018-07-08T15:46:02.757Z,27.10
2018-07-08T15:50:59.698Z,27.00
2018-07-08T15:55:55.703Z,27.20
2018-07-08T16:00:51.246Z,27.10
2018-07-08T16:05:47.158Z,27.10
2018-07-08T16:10:42.717Z,26.90
2018-07-08T16:15:38.960Z,26.70
2018-07-08T16:20:35.838Z,26.80
2018-07-08T16:25:31.549Z,26.60
2018-07-08T16:30:30.368Z,26.60
2018-07-08T16:35:26.717Z,26.80
2018-07-08T16:40:22.331Z,27.00
2018-07-08T16:45:17.749Z,27.00
2018-07-08T16:50:13.224Z,26.90
2018-07-08T16:55:09.173Z,26.90
2018-07-08T17:00:05.456Z,26.90
2018-07-08T17:05:01.062Z,26.70
2018-07-08T17:09:57.468Z,26.60
2018-07-08T17:14:53.170Z,26.30
2018-07-08T17:19:48.585Z,26.20
2018-07-08T17:24:44.713Z,26.00
2018-07-08T17:29:40.341Z,25.90
2018-07-08T17:34:35.983Z,25.80
2018-07-08T17:39:32.077Z,25.70
2018-07-08T17:44:28.612Z,25.50
2018-07-08T17:49:24.118Z,25.40
2018-07-08T17:54:21.117Z,25.30
2018-07-08T17:59:16.675Z,25.20
2018-07-08T18:04:12.438Z,25.00
2018-07-08T18:09:08.460Z,25.00
2018-07-08T18:14:07.720Z,24.90
2018-07-08T18:19:04.639Z,24.80
2018-07-08T18:24:07.865Z,24.70
2018-07-08T18:29:04.483Z,24.60
2018-07-08T18:34:00.576Z,24.50
2018-07-08T18:48:49.114Z,24.20
2018-07-08T18:53:46.160Z,24.10
2018-07-08T18:58:41.997Z,23.90
2018-07-08T19:03:38.049Z,23.90
2018-07-08T19:08:33.632Z,23.70
2018-07-08T19:13:29.326Z,23.70
2018-07-08T19:18:28.265Z,23.60
2018-07-08T19:23:24.104Z,23.50
2018-07-08T19:28:20.769Z,23.40
2018-07-08T19:33:17.004Z,23.30
2018-07-08T19:38:12.784Z,23.30
2018-07-08T19:43:08.391Z,23.20
2018-07-08T19:48:06.084Z,23.20
2018-07-08T19:53:02.005Z,23.20
2018-07-08T19:57:57.624Z,23.20
2018-07-08T20:02:53.289Z,23.30
2018-07-08T20:07:54.013Z,23.30
2018-07-08T20:12:49.580Z,23.20
2018-07-08T20:17:45.466Z,23.20
2018-07-08T20:22:41.307Z,23.20
2018-07-08T20:27:36.862Z,23.20
2018-07-08T20:37:27.444Z,23.20
2018-07-08T20:42:23.281Z,23.20
2018-07-08T20:47:26.296Z,23.20
2018-07-08T20:52:22.254Z,23.20
2018-07-08T20:57:18.271Z,23.20
2018-07-08T21:02:14.628Z,23.10
2018-07-08T21:07:13.738Z,23.00
2018-07-08T21:12:09.472Z,22.90
2018-07-08T21:17:08.968Z,22.70
2018-07-08T21:22:05.720Z,22.60
2018-07-08T21:27:01.419Z,22.50
2018-07-08T21:31:59.981Z,22.30
2018-07-08T21:36:55.846Z,22.20
2018-07-08T21:41:51.786Z,22.20
2018-07-08T21:51:42.735Z,22.20
2018-07-08T21:56:39.694Z,22.30
2018-07-08T22:07:38.514Z,22.30
2018-07-08T22:12:34.913Z,22.30
2018-07-08T22:17:30.925Z,22.30
2018-07-08T22:22:26.553Z,22.20
2018-07-08T22:27:23.010Z,22.20
2018-07-08T22:32:19.155Z,22.20
2018-07-08T22:37:14.747Z,22.00
2018-07-08T22:42:10.502Z,22.00
2018-07-08T22:47:09.173Z,22.00
2018-07-08T22:52:06.982Z,22.00
2018-07-08T22:57:07.130Z,22.00
2018-07-08T23:02:13.679Z,22.10
2018-07-08T23:07:09.241Z,22.00
2018-07-08T23:12:09.886Z,22.00
2018-07-08T23:17:07.864Z,21.90
2018-07-08T23:22:06.659Z,21.90
2018-07-08T23:27:03.693Z,21.80
2018-07-08T23:32:00.094Z,21.80
2018-07-08T23:36:56.078Z,21.80
2018-07-08T23:41:52.896Z,21.70
2018-07-08T23:46:48.357Z,21.80
2018-07-08T23:51:44.586Z,21.80
2018-07-08T23:56:40.156Z,21.70
